Time;durP1;ratioP1;P1;durP2;ratioP2;P2;SDS_P1;SDS_P2;PMS_P1;PMS_P2;Temp;Humidity;BMP_temperature;BMP_pressure;BME280_temperature;BME280_humidity;BME280_pressure;Samples;Min_cycle;Max_cycle;Signal;HPM_P1;HPM_P2
2023/01/24 00:00:48;;;;;;;40.20;29.40;;;;;;;2.16;100.00;161135.78;5030823;28;20404;-62
2023/01/24 00:03:13;;;;;;;37.70;27.15;;;;;;;2.18;100.00;161141.16;5032348;28;20017;-62
2023/01/24 00:05:40;;;;;;;30.48;23.77;;;;;;;2.15;100.00;161133.09;5031155;28;20042;-62
2023/01/24 00:08:05;;;;;;;31.00;24.48;;;;;;;2.14;100.00;161130.41;5032321;28;20128;-62
2023/01/24 00:10:31;;;;;;;31.42;23.05;;;;;;;2.15;100.00;161133.09;5031011;28;20473;-61
2023/01/24 00:12:57;;;;;;;30.65;24.10;;;;;;;2.18;100.00;161139.78;5032231;28;20025;-62
2023/01/24 00:15:22;;;;;;;32.45;22.70;;;;;;;2.19;100.00;161143.84;5030574;28;21825;-61
2023/01/24 00:17:47;;;;;;;33.05;25.27;;;;;;;2.09;100.00;161117.00;5032245;28;20029;-61
2023/01/24 00:20:13;;;;;;;28.80;22.05;;;;;;;2.17;100.00;161138.47;5030817;28;20042;-61
2023/01/24 00:22:38;;;;;;;31.15;21.10;;;;;;;2.16;100.00;161134.47;5031649;28;20515;-62
2023/01/24 00:25:04;;;;;;;29.02;21.98;;;;;;;2.17;100.00;161138.47;5030913;28;20452;-58
2023/01/24 00:27:31;;;;;;;31.67;23.10;;;;;;;2.14;100.00;161130.41;5032273;28;20025;-61
2023/01/24 00:29:56;;;;;;;34.97;26.30;;;;;;;2.13;100.00;161127.72;5032242;28;20017;-61
2023/01/24 00:32:22;;;;;;;33.97;24.85;;;;;;;2.12;100.00;161125.06;5030327;28;20048;-61
2023/01/24 00:34:47;;;;;;;33.22;23.27;;;;;;;2.11;100.00;161122.38;5032118;28;20021;-61
2023/01/24 00:37:12;;;;;;;31.13;21.02;;;;;;;2.12;100.00;161125.06;5029882;28;20405;-61
2023/01/24 00:39:38;;;;;;;28.92;22.45;;;;;;;2.12;100.00;161123.69;5032055;28;20075;-61
2023/01/24 00:42:03;;;;;;;41.58;29.00;;;;;;;2.05;100.00;161107.59;5030481;28;20076;-61
2023/01/24 00:44:28;;;;;;;28.63;22.98;;;;;;;2.08;100.00;161114.31;5031313;28;20034;-61
2023/01/24 00:46:54;;;;;;;26.58;22.10;;;;;;;2.06;100.00;161108.91;5030827;28;20103;-62
2023/01/24 00:49:20;;;;;;;33.05;23.52;;;;;;;2.04;100.00;161103.59;5032015;28;20021;-62
2023/01/24 00:51:45;;;;;;;25.98;19.65;;;;;;;2.07;100.00;161111.59;5030136;28;20041;-62
2023/01/24 00:54:10;;;;;;;27.35;21.35;;;;;;;2.08;100.00;161112.97;5032091;28;20021;-62
2023/01/24 00:56:36;;;;;;;26.85;20.85;;;;;;;2.06;100.00;161108.91;5030236;28;20048;-62
2023/01/24 00:59:01;;;;;;;29.05;22.60;;;;;;;2.05;100.00;161106.22;5031679;28;20029;-62
2023/01/24 01:01:26;;;;;;;53.53;38.30;;;;;;;2.01;100.00;161095.50;5030174;28;20045;-62
2023/01/24 01:03:57;;;;;;;28.35;21.90;;;;;;;2.01;100.00;161095.50;5031806;28;20095;-62
2023/01/24 01:06:24;;;;;;;26.63;20.13;;;;;;;2.03;100.00;161100.91;5018303;28;20049;-62
2023/01/24 01:08:50;;;;;;;25.10;18.48;;;;;;;1.99;100.00;161090.13;5012275;28;20125;-62
2023/01/24 01:11:15;;;;;;;22.75;18.45;;;;;;;1.89;100.00;161066.00;5010025;28;20542;-63
2023/01/24 01:13:41;;;;;;;29.55;20.90;;;;;;;2.01;100.00;161095.50;5012129;28;20029;-62
2023/01/24 01:16:18;;;;;;;25.33;20.50;;;;;;;1.99;100.00;161090.13;5010491;28;20041;-62
2023/01/24 01:18:45;;;;;;;22.67;18.05;;;;;;;1.98;100.00;161087.44;5011845;28;20029;-63
2023/01/24 01:21:12;;;;;;;22.38;17.60;;;;;;;2.02;100.00;161098.19;5009884;28;20046;-62
2023/01/24 01:23:38;;;;;;;24.58;18.13;;;;;;;1.93;100.00;161074.03;5012132;28;20532;-62
2023/01/24 01:26:06;;;;;;;26.05;22.45;;;;;;;1.97;100.00;161086.13;5009689;28;20057;-63
2023/01/24 01:28:31;;;;;;;26.17;21.65;;;;;;;1.98;100.00;161088.81;5011081;28;20630;-63
2023/01/24 01:30:57;;;;;;;20.73;17.63;;;;;;;1.90;100.00;161067.34;5010242;28;20038;-63
2023/01/24 01:33:23;;;;;;;29.73;22.27;;;;;;;1.93;100.00;161074.03;5011561;28;20517;-62
2023/01/24 01:35:49;;;;;;;29.35;21.77;;;;;;;1.93;100.00;161074.03;5010253;28;20034;-63
2023/01/24 01:38:15;;;;;;;26.05;20.15;;;;;;;1.92;100.00;161071.34;5011205;28;20481;-62
2023/01/24 01:40:41;;;;;;;33.13;21.88;;;;;;;1.94;100.00;161078.03;5010375;28;20378;-63
2023/01/24 01:43:21;;;;;;;24.95;20.73;;;;;;;1.93;100.00;161074.03;5011259;28;20072;-62
2023/01/24 01:45:54;;;;;;;28.30;21.85;;;;;;;1.90;100.00;161068.66;5010123;28;20116;-63
2023/01/24 01:48:27;;;;;;;28.15;20.98;;;;;;;1.90;100.00;161068.66;5011396;28;20025;-63
2023/01/24 01:50:59;;;;;;;25.13;20.25;;;;;;;1.94;100.00;161076.72;5009649;28;20516;-63
2023/01/24 01:53:28;;;;;;;28.10;22.13;;;;;;;1.88;100.00;161061.94;5011255;28;20026;-63
2023/01/24 01:56:04;;;;;;;27.27;19.90;;;;;;;1.85;100.00;161055.25;5009968;28;20401;-63
2023/01/24 01:58:30;;;;;;;27.20;23.20;;;;;;;1.88;100.00;161063.31;5008163;28;20057;-63
2023/01/24 02:00:55;;;;;;;29.35;22.75;;;;;;;1.83;100.00;161049.88;5022827;28;20107;-63
2023/01/24 02:03:38;;;;;;;30.02;22.17;;;;;;;1.85;100.00;161055.25;5013661;28;20100;-63
2023/01/24 02:06:06;;;;;;;30.02;23.33;;;;;;;1.81;100.00;161044.53;5009494;28;20567;-63
2023/01/24 02:08:33;;;;;;;31.27;22.70;;;;;;;1.84;100.00;161052.56;5011073;28;20049;-62
2023/01/24 02:13:44;;;;;;;31.42;22.63;;;;;;;1.87;100.00;161060.63;5011103;28;20040;-62
2023/01/24 02:16:14;;;;;;;27.52;23.27;;;;;;;1.86;100.00;161057.94;5009671;28;20124;-62
2023/01/24 02:18:42;;;;;;;26.08;20.70;;;;;;;1.74;100.00;161025.75;5011038;28;20026;-62
2023/01/24 02:21:10;;;;;;;24.73;20.98;;;;;;;1.83;100.00;161049.88;5009222;28;20042;-62
2023/01/24 02:24:05;;;;;;;27.85;22.33;;;;;;;1.87;100.00;161059.25;5010889;28;20029;-62
2023/01/24 02:26:30;;;;;;;30.02;22.05;;;;;;;1.86;100.00;161057.94;5009502;28;20061;-62
2023/01/24 02:29:00;;;;;;;28.45;20.35;;;;;;;1.84;100.00;161051.25;5010834;28;20057;-62
2023/01/24 02:31:26;;;;;;;29.98;22.90;;;;;;;1.73;100.00;161024.38;5009117;28;20046;-62
2023/01/24 02:33:51;;;;;;;28.15;21.88;;;;;;;1.77;100.00;161033.78;5010746;28;20025;-62
2023/01/24 02:36:26;;;;;;;30.48;23.23;;;;;;;1.77;100.00;161033.78;5009670;28;20037;-63
2023/01/24 02:39:03;;;;;;;34.30;22.35;;;;;;;1.77;100.00;161033.78;5015037;28;20030;-64
2023/01/24 02:41:38;;;;;;;30.25;21.88;;;;;;;1.76;100.00;161031.09;5013007;28;20401;-64
2023/01/24 02:44:09;;;;;;;29.67;19.13;;;;;;;1.76;100.00;161031.09;5014419;28;20061;-64
2023/01/24 02:46:36;;;;;;;29.17;22.05;;;;;;;1.82;100.00;161047.22;5013259;28;20052;-64
2023/01/24 02:49:01;;;;;;;32.97;23.88;;;;;;;1.76;100.00;161031.09;5014923;28;20040;-64
2023/01/24 02:54:10;;;;;;;55.80;21.48;;;;;;;1.69;100.00;161013.66;5014936;28;20515;-63
2023/01/24 02:59:19;;;;;;;26.63;20.80;;;;;;;1.68;100.00;161010.97;5014229;28;20040;-64
2023/01/24 03:01:45;;;;;;;27.35;20.98;;;;;;;1.67;100.00;161006.97;5012724;28;20493;-63
2023/01/24 03:04:11;;;;;;;23.40;19.30;;;;;;;1.66;100.00;161005.59;5014358;28;20092;-63
2023/01/24 03:06:37;;;;;;;22.63;18.77;;;;;;;1.65;100.00;161001.59;5012696;28;20402;-63
2023/01/24 03:09:18;;;;;;;27.52;21.75;;;;;;;1.61;100.00;160990.81;5014396;28;20040;-63
2023/01/24 03:11:44;;;;;;;31.35;22.08;;;;;;;1.61;100.00;160990.81;5012793;28;20046;-63
2023/01/24 03:36:01;;;;;;;25.08;19.80;;;;;;;1.58;100.00;160984.13;5012184;28;20060;-63
2023/01/24 03:41:10;;;;;;;26.95;21.65;;;;;;;1.56;100.00;160980.13;5012306;28;20080;-63
2023/01/24 03:43:36;;;;;;;28.95;23.55;;;;;;;1.62;100.00;160993.53;5013199;28;20025;-63
2023/01/24 03:46:01;;;;;;;28.70;21.35;;;;;;;1.63;100.00;160996.22;5012108;28;20432;-63
2023/01/24 03:48:34;;;;;;;30.77;22.73;;;;;;;1.64;100.00;160998.91;5012837;28;20026;-63
2023/01/24 03:53:43;;;;;;;31.38;22.98;;;;;;;1.64;100.00;160998.91;5013606;28;20165;-63
2023/01/24 03:56:08;;;;;;;30.65;23.17;;;;;;;1.65;100.00;161001.59;5012110;28;20042;-63
2023/01/24 03:58:34;;;;;;;32.08;24.58;;;;;;;1.64;100.00;161000.22;5012821;28;20026;-63
2023/01/24 04:00:59;;;;;;;36.92;24.50;;;;;;;1.62;100.00;160994.88;5011850;28;20045;-63
2023/01/24 04:03:24;;;;;;;29.65;22.25;;;;;;;1.60;100.00;160989.50;5012956;28;20038;-63
2023/01/24 04:05:50;;;;;;;33.40;25.02;;;;;;;1.60;100.00;160988.19;5011612;28;20092;-63
2023/01/24 04:08:17;;;;;;;31.05;23.95;;;;;;;1.55;100.00;160977.44;5012851;28;20477;-63
2023/01/24 04:10:43;;;;;;;30.45;22.08;;;;;;;1.52;100.00;160969.41;5011850;28;20038;-63
2023/01/24 04:13:12;;;;;;;34.78;23.73;;;;;;;1.53;100.00;160972.03;5012719;28;20033;-63
2023/01/24 04:15:38;;;;;;;29.90;23.67;;;;;;;1.52;100.00;160969.41;5011686;28;20052;-63
2023/01/24 04:18:05;;;;;;;29.50;22.98;;;;;;;1.54;100.00;160974.75;5013078;28;20097;-63
2023/01/24 04:20:32;;;;;;;29.80;25.35;;;;;;;1.56;100.00;160980.13;5011119;28;20037;-63
2023/01/24 04:23:02;;;;;;;33.45;24.17;;;;;;;1.55;100.00;160977.44;5012646;28;20026;-63
2023/01/24 04:25:27;;;;;;;30.33;24.05;;;;;;;1.50;100.00;160964.03;5011321;28;20072;-63
2023/01/24 04:27:53;;;;;;;30.30;23.77;;;;;;;1.45;100.00;160950.63;5012499;28;20474;-63
2023/01/24 04:30:18;;;;;;;29.27;21.67;;;;;;;1.50;100.00;160964.03;5011334;28;20049;-63
2023/01/24 04:32:43;;;;;;;32.15;25.70;;;;;;;1.51;100.00;160966.72;5012853;28;20033;-63
2023/01/24 04:35:15;;;;;;;31.45;24.25;;;;;;;1.52;100.00;160969.41;5010758;28;20021;-63
2023/01/24 04:37:41;;;;;;;31.27;23.92;;;;;;;1.47;100.00;160955.97;5012844;28;20567;-63
2023/01/24 04:40:07;;;;;;;31.55;25.80;;;;;;;1.48;100.00;160957.31;5011426;28;20029;-63
2023/01/24 04:42:33;;;;;;;34.97;26.13;;;;;;;1.46;100.00;160953.25;5011809;28;20026;-63
2023/01/24 04:44:58;;;;;;;30.33;23.90;;;;;;;1.50;100.00;160964.03;5012309;28;20022;-63
2023/01/24 04:47:23;;;;;;;33.22;24.92;;;;;;;1.48;100.00;160958.66;5030228;28;20289;-63
2023/01/24 04:49:49;;;;;;;33.70;27.05;;;;;;;1.46;100.00;160953.25;5031589;28;20018;-63
2023/01/24 04:52:14;;;;;;;30.80;24.13;;;;;;;1.45;100.00;160950.63;5030622;28;20052;-63
2023/01/24 04:54:40;;;;;;;34.20;27.67;;;;;;;1.46;100.00;160953.25;5032276;28;20021;-63
2023/01/24 04:57:06;;;;;;;34.33;26.98;;;;;;;1.45;100.00;160950.63;5030042;28;20407;-63
2023/01/24 04:59:31;;;;;;;33.58;25.90;;;;;;;1.46;100.00;160953.25;5031946;28;20766;-62
2023/01/24 05:01:57;;;;;;;32.30;25.90;;;;;;;1.44;100.00;160947.94;5030364;28;20049;-62
2023/01/24 05:04:22;;;;;;;36.33;27.38;;;;;;;1.39;100.00;160934.50;5031011;28;20500;-63
2023/01/24 05:06:47;;;;;;;38.67;27.88;;;;;;;1.43;100.00;160946.56;5030183;28;20044;-63
2023/01/24 05:09:13;;;;;;;34.33;29.00;;;;;;;1.43;100.00;160945.25;5031676;28;20024;-63
2023/01/24 05:11:38;;;;;;;35.60;26.95;;;;;;;1.41;100.00;160939.88;5029862;28;20049;-62
2023/01/24 05:14:03;;;;;;;33.92;25.10;;;;;;;1.38;100.00;160931.78;5031307;28;20025;-63
2023/01/24 05:16:29;;;;;;;34.25;26.65;;;;;;;1.39;100.00;160934.50;5028764;28;20038;-63
2023/01/24 05:18:54;;;;;;;35.60;27.23;;;;;;;1.39;100.00;160934.50;5030630;28;20536;-63
2023/01/24 05:21:20;;;;;;;36.00;27.80;;;;;;;1.42;100.00;160943.88;5029992;28;20060;-63
2023/01/24 05:23:52;;;;;;;33.17;26.02;;;;;;;1.42;100.00;160942.56;5031573;28;20032;-63
2023/01/24 05:26:22;;;;;;;36.53;28.25;;;;;;;1.40;100.00;160937.19;5029506;28;20049;-63
2023/01/24 05:28:48;;;;;;;41.00;30.92;;;;;;;1.37;100.00;160930.47;5031262;28;20040;-62
2023/01/24 05:31:14;;;;;;;31.15;24.73;;;;;;;1.36;100.00;160926.47;5029754;28;20068;-62
2023/01/24 05:33:40;;;;;;;32.88;26.13;;;;;;;1.40;100.00;160937.19;5031045;28;20420;-60
2023/01/24 05:36:11;;;;;;;28.08;23.98;;;;;;;1.39;100.00;160934.50;5029640;28;20195;-60
2023/01/24 05:38:37;;;;;;;32.55;24.58;;;;;;;1.34;100.00;160921.09;5031024;28;20036;-60
2023/01/24 05:41:05;;;;;;;35.40;23.98;;;;;;;1.39;100.00;160934.50;5029701;28;20041;-60
2023/01/24 05:43:31;;;;;;;28.33;20.00;;;;;;;1.36;100.00;160926.47;5030836;28;20542;-60
2023/01/24 05:46:08;;;;;;;32.65;24.17;;;;;;;1.40;100.00;160937.19;5029804;28;20037;-60
2023/01/24 05:48:34;;;;;;;32.85;26.23;;;;;;;1.42;100.00;160943.88;5030826;28;20468;-60
2023/01/24 05:51:04;;;;;;;34.83;26.35;;;;;;;1.42;100.00;160942.56;5027976;28;20047;-60
2023/01/24 05:53:32;;;;;;;31.60;26.40;;;;;;;1.38;100.00;160931.78;5028779;28;20460;-60
2023/01/24 05:55:59;;;;;;;34.33;29.05;;;;;;;1.40;100.00;160937.19;5028812;28;20432;-60
2023/01/24 05:58:29;;;;;;;34.10;26.15;;;;;;;1.40;100.00;160937.19;5029816;28;20104;-60
2023/01/24 06:00:55;;;;;;;38.65;27.77;;;;;;;1.41;100.00;160939.88;5028568;28;20052;-60
2023/01/24 06:03:21;;;;;;;31.60;25.80;;;;;;;1.38;100.00;160933.16;5028949;28;20108;-59
2023/01/24 06:05:48;;;;;;;27.08;23.60;;;;;;;1.38;100.00;160933.16;5029095;28;20130;-60
2023/01/24 06:08:13;;;;;;;30.83;25.00;;;;;;;1.41;100.00;160939.88;5030243;28;20071;-60
2023/01/24 06:10:39;;;;;;;28.05;24.13;;;;;;;1.38;100.00;160931.78;5028570;28;20504;-60
2023/01/24 06:13:04;;;;;;;29.83;24.35;;;;;;;1.37;100.00;160929.16;5030720;28;20025;-60
2023/01/24 06:15:29;;;;;;;28.73;23.15;;;;;;;1.35;100.00;160923.78;5029215;28;20041;-60
2023/01/24 06:17:55;;;;;;;28.75;23.58;;;;;;;1.41;100.00;160939.88;5030269;28;20025;-60
2023/01/24 06:20:24;;;;;;;31.92;27.13;;;;;;;1.41;100.00;160939.88;5029032;28;20492;-59
2023/01/24 06:22:52;;;;;;;;;;;;;;;1.41;100.00;160939.88;5031103;28;20116;-60
2023/01/24 06:25:23;;;;;;;;;;;;;;;1.38;100.00;160931.78;5028599;28;20403;-59
2023/01/24 06:27:49;;;;;;;26.27;23.45;;;;;;;1.40;100.00;160937.19;5031770;28;19943;-59
2023/01/24 06:30:16;;;;;;;32.78;25.38;;;;;;;1.32;100.00;160915.72;5047362;28;20480;-59
2023/01/24 06:33:02;;;;;;;32.08;24.40;;;;;;;1.30;100.00;160910.38;5049152;28;20559;-60
2023/01/24 06:35:32;;;;;;;28.70;22.70;;;;;;;1.30;100.00;160911.69;5048872;28;20040;-60
2023/01/24 06:37:58;;;;;;;29.38;22.73;;;;;;;1.31;100.00;160914.38;5050040;28;20063;-60
2023/01/24 06:40:24;;;;;;;29.25;22.98;;;;;;;1.34;100.00;160921.09;5047809;28;20123;-60
2023/01/24 06:42:51;;;;;;;35.15;23.02;;;;;;;1.23;100.00;160894.25;5050424;28;20025;-60
2023/01/24 06:45:17;;;;;;;25.38;21.48;;;;;;;1.24;100.00;160896.94;5048567;28;20036;-60
2023/01/24 06:47:43;;;;;;;26.15;22.65;;;;;;;1.22;100.00;160891.59;5050268;28;20021;-61
2023/01/24 06:50:15;;;;;;;23.63;19.40;;;;;;;1.21;100.00;160888.91;5049242;28;20100;-60
2023/01/24 06:52:48;;;;;;;24.48;20.13;;;;;;;1.25;100.00;160899.63;5050427;28;20107;-60
2023/01/24 06:55:14;;;;;;;27.00;22.30;;;;;;;1.22;100.00;160891.59;5048562;28;20538;-60
2023/01/24 06:57:39;;;;;;;24.48;20.48;;;;;;;1.18;100.00;160880.84;5036724;28;20100;-60
2023/01/24 07:00:05;;;;;;;25.38;20.85;;;;;;;1.15;100.00;160872.81;5047450;28;20029;-60
2023/01/24 07:02:31;;;;;;;27.63;21.95;;;;;;;1.21;100.00;160888.91;5044869;28;20068;-60
2023/01/24 07:04:56;;;;;;;29.05;22.58;;;;;;;1.21;100.00;160888.91;5030151;28;20425;-60
2023/01/24 07:07:21;;;;;;;33.97;23.20;;;;;;;1.18;100.00;160880.84;5028678;28;20076;-61
2023/01/24 07:09:47;;;;;;;28.30;23.05;;;;;;;1.23;100.00;160892.91;5030037;28;20021;-60
2023/01/24 07:12:12;;;;;;;26.58;23.10;;;;;;;1.27;100.00;160905.00;5028460;28;20060;-60
2023/01/24 07:14:37;;;;;;;32.25;22.05;;;;;;;1.29;100.00;160909.00;5030508;28;20143;-60
2023/01/24 07:17:03;;;;;;;27.92;22.05;;;;;;;1.32;100.00;160915.72;5028424;28;20435;-60
2023/01/24 07:19:29;;;;;;;25.77;21.80;;;;;;;1.35;100.00;160923.78;5028928;28;20025;-60
2023/01/24 07:21:56;;;;;;;30.02;24.75;;;;;;;1.27;100.00;160903.63;5027634;28;20504;-60
2023/01/24 07:24:24;;;;;;;30.33;23.75;;;;;;;1.37;100.00;160930.47;5030813;28;20022;-60
2023/01/24 07:26:51;;;;;;;28.70;20.67;;;;;;;1.32;100.00;160915.72;5029727;28;20038;-60
2023/01/24 07:29:21;;;;;;;26.45;20.63;;;;;;;1.34;100.00;160922.41;5040412;28;20021;-60
2023/01/24 07:31:49;;;;;;;29.27;23.00;;;;;;;1.30;100.00;160910.38;5031891;28;20042;-60
2023/01/24 07:34:18;;;;;;;25.67;21.55;;;;;;;1.37;100.00;160929.16;5033664;28;20545;-60
2023/01/24 07:36:44;;;;;;;;;;;;;;;1.34;100.00;160921.09;5032656;28;20128;-60
2023/01/24 07:39:10;;;;;;;27.83;21.58;;;;;;;1.37;100.00;160929.16;5033244;28;20008;-60
2023/01/24 07:41:36;;;;;;;25.05;21.23;;;;;;;1.39;100.00;160934.50;5031825;28;20041;-60
2023/01/24 07:44:05;;;;;;;32.13;24.23;;;;;;;1.39;100.00;160934.50;5033758;28;20037;-60
2023/01/24 07:46:32;;;;;;;30.83;25.02;;;;;;;1.41;100.00;160941.25;5031433;28;20523;-60
2023/01/24 07:48:57;;;;;;;32.45;24.23;;;;;;;1.36;100.00;160926.47;5033638;28;20040;-60
2023/01/24 07:51:23;;;;;;;29.77;22.55;;;;;;;1.38;100.00;160931.78;5031874;28;20041;-60
2023/01/24 07:53:48;;;;;;;26.45;22.20;;;;;;;1.36;100.00;160926.47;5037355;28;20510;-60
2023/01/24 07:56:15;;;;;;;31.05;24.17;;;;;;;1.33;100.00;160918.41;5050851;28;20089;-60
2023/01/24 07:58:40;;;;;;;26.35;23.55;;;;;;;1.39;100.00;160934.50;5053427;28;20029;-60
2023/01/24 08:01:06;;;;;;;31.67;24.10;;;;;;;1.39;100.00;160934.50;5051328;28;20065;-60
2023/01/24 08:03:31;;;;;;;28.42;24.23;;;;;;;1.38;100.00;160933.16;5040767;28;20052;-60
2023/01/24 08:05:56;;;;;;;30.73;25.25;;;;;;;1.39;100.00;160934.50;5033829;28;20049;-60
2023/01/24 08:08:22;;;;;;;30.88;23.98;;;;;;;1.43;100.00;160945.25;5032512;28;20025;-60
2023/01/24 08:10:47;;;;;;;29.88;24.80;;;;;;;1.39;100.00;160934.50;5031673;28;20052;-60
2023/01/24 08:13:12;;;;;;;32.78;25.73;;;;;;;1.45;100.00;160950.63;5031676;28;20103;-60
2023/01/24 08:15:38;;;;;;;35.38;25.73;;;;;;;1.40;100.00;160937.19;5029291;28;20037;-60
2023/01/24 08:18:03;;;;;;;28.38;23.20;;;;;;;1.45;100.00;160950.63;5017794;28;20453;-60
2023/01/24 08:20:29;;;;;;;34.47;26.10;;;;;;;1.42;100.00;160943.88;5028744;28;20144;-60
2023/01/24 08:22:57;;;;;;;29.58;24.20;;;;;;;1.44;100.00;160947.94;5032556;28;20025;-60
2023/01/24 08:25:24;;;;;;;32.38;25.85;;;;;;;1.44;100.00;160947.94;5012475;28;20053;-60
2023/01/24 08:27:49;;;;;;;34.33;23.88;;;;;;;1.42;100.00;160943.88;5012525;28;20054;-61
2023/01/24 08:30:15;;;;;;;30.65;26.38;;;;;;;1.45;100.00;160950.63;5024485;28;20044;-60
2023/01/24 08:32:41;;;;;;;36.15;24.70;;;;;;;1.41;100.00;160941.25;5030952;28;20030;-60
2023/01/24 08:35:06;;;;;;;30.15;23.52;;;;;;;1.41;100.00;160941.25;5030671;28;20024;-60
2023/01/24 08:37:32;;;;;;;24.95;20.52;;;;;;;1.44;100.00;160947.94;5031388;28;20033;-60
2023/01/24 08:39:57;;;;;;;27.20;20.27;;;;;;;1.42;100.00;160942.56;5032117;28;20083;-60
2023/01/24 08:42:23;;;;;;;28.05;21.38;;;;;;;1.47;100.00;160954.63;5030596;28;20038;-60
2023/01/24 08:44:49;;;;;;;31.80;23.15;;;;;;;1.50;100.00;160964.03;5032482;28;20022;-60
2023/01/24 08:47:14;;;;;;;26.25;22.77;;;;;;;1.51;100.00;160966.72;5030389;28;20044;-60
2023/01/24 08:49:40;;;;;;;33.40;22.42;;;;;;;1.55;100.00;160977.44;5031424;28;20037;-60
2023/01/24 08:52:05;;;;;;;27.85;22.88;;;;;;;1.57;100.00;160982.81;5028827;28;20064;-60
2023/01/24 08:54:35;;;;;;;28.73;21.67;;;;;;;1.60;100.00;160988.19;5031017;28;20029;-60
2023/01/24 08:57:01;;;;;;;26.23;22.15;;;;;;;1.58;100.00;160985.50;5030658;28;20060;-60
2023/01/24 08:59:27;;;;;;;27.27;23.35;;;;;;;1.64;100.00;160998.91;5030529;28;20392;-60
2023/01/24 09:01:52;;;;;;;25.27;20.83;;;;;;;1.68;100.00;161009.59;5030367;28;20033;-60
2023/01/24 09:04:17;;;;;;;28.08;23.40;;;;;;;1.69;100.00;161013.66;5031550;28;20041;-60
2023/01/24 09:06:43;;;;;;;23.77;20.55;;;;;;;1.71;100.00;161017.69;5030656;28;20069;-60
2023/01/24 09:09:08;;;;;;;32.47;23.70;;;;;;;1.74;100.00;161025.75;5030930;28;20119;-60
2023/01/24 09:11:34;;;;;;;25.70;20.88;;;;;;;1.72;100.00;161021.69;5030291;28;20048;-60
2023/01/24 09:13:59;;;;;;;23.27;20.55;;;;;;;1.70;100.00;161016.34;5031655;28;20025;-60
2023/01/24 09:16:27;;;;;;;25.90;20.90;;;;;;;1.70;100.00;161015.00;5029866;28;20034;-61
2023/01/24 09:18:53;;;;;;;30.02;22.85;;;;;;;1.73;100.00;161023.06;5031942;28;20026;-61
2023/01/24 09:21:19;;;;;;;25.73;20.20;;;;;;;1.70;100.00;161015.00;5029986;28;20117;-61
2023/01/24 09:23:45;;;;;;;21.38;19.08;;;;;;;1.72;100.00;161020.38;5031223;28;20029;-61
2023/01/24 09:26:10;;;;;;;21.60;18.63;;;;;;;1.74;100.00;161025.75;5030005;28;20523;-61
2023/01/24 09:28:36;;;;;;;24.77;21.45;;;;;;;1.72;100.00;161020.38;5031515;28;20183;-61
2023/01/24 09:31:02;;;;;;;21.17;18.40;;;;;;;1.74;100.00;161025.75;5030046;28;20102;-61
2023/01/24 09:33:28;;;;;;;20.25;18.08;;;;;;;1.65;100.00;161001.59;5031043;28;20040;-60
2023/01/24 09:36:01;;;;;;;21.70;19.38;;;;;;;1.68;100.00;161010.97;5030236;28;20086;-60
2023/01/24 09:38:31;;;;;;;22.95;18.83;;;;;;;1.71;100.00;161017.69;5030951;28;20578;-60
2023/01/24 09:41:03;;;;;;;21.00;18.95;;;;;;;1.70;100.00;161016.34;5029928;28;20034;-61
2023/01/24 09:43:38;;;;;;;20.02;17.15;;;;;;;1.68;100.00;161009.59;5031246;28;20138;-61
2023/01/24 09:46:22;;;;;;;21.20;17.17;;;;;;;1.64;100.00;160998.91;5028839;28;20037;-61
2023/01/24 09:48:52;;;;;;;18.23;15.38;;;;;;;1.67;100.00;161006.97;5031427;28;20377;-61
2023/01/24 09:51:29;;;;;;;20.45;16.80;;;;;;;1.72;100.00;161020.38;5029945;28;20042;-62
2023/01/24 09:53:59;;;;;;;20.63;17.95;;;;;;;1.72;100.00;161021.69;5031113;28;20039;-61
2023/01/24 09:56:30;;;;;;;24.38;18.65;;;;;;;1.56;100.00;160980.13;5029536;28;20041;-61
2023/01/24 09:59:21;;;;;;;20.83;18.15;;;;;;;1.67;100.00;161006.97;5031204;28;20488;-61
2023/01/24 10:01:48;;;;;;;22.38;18.58;;;;;;;1.74;100.00;161025.75;5029718;28;20045;-62
2023/01/24 10:04:17;;;;;;;21.48;18.25;;;;;;;1.71;100.00;161019.00;5030479;28;20061;-62
2023/01/24 10:07:12;;;;;;;19.35;16.55;;;;;;;1.76;100.00;161031.09;5029120;28;20049;-62
2023/01/24 10:10:02;;;;;;;23.45;18.58;;;;;;;1.80;100.00;161040.47;5030847;28;20512;-61
2023/01/24 10:12:55;;;;;;;24.10;18.10;;;;;;;1.80;100.00;161041.84;5029461;28;20061;-61
2023/01/24 10:15:54;;;;;;;19.67;17.58;;;;;;;1.81;100.00;161043.16;5028909;28;20048;-61
2023/01/24 10:18:37;;;;;;;18.50;16.60;;;;;;;1.83;100.00;161048.53;5030471;28;20095;-61
2023/01/24 10:21:27;;;;;;;17.42;15.55;;;;;;;1.77;100.00;161033.78;5029572;28;20382;-61
2023/01/24 10:23:59;;;;;;;19.17;16.77;;;;;;;1.81;100.00;161044.53;5030658;28;20528;-61
2023/01/24 10:26:32;;;;;;;17.85;16.02;;;;;;;1.75;100.00;161028.38;5028995;28;20045;-61
2023/01/24 10:29:10;;;;;;;19.35;17.30;;;;;;;1.82;100.00;161047.22;5030536;28;20037;-61
2023/01/24 10:31:41;;;;;;;20.95;16.42;;;;;;;1.80;100.00;161041.84;5029045;28;20038;-61
2023/01/24 10:34:13;;;;;;;19.30;16.40;;;;;;;1.79;100.00;161037.84;5030951;28;20092;-61
2023/01/24 10:36:48;;;;;;;23.75;19.35;;;;;;;1.74;100.00;161025.75;5028673;28;20121;-61
2023/01/24 10:39:13;;;;;;;20.80;18.60;;;;;;;1.76;100.00;161029.75;5030423;28;20100;-61
2023/01/24 10:41:39;;;;;;;26.55;20.50;;;;;;;1.76;100.00;161031.09;5029252;28;20038;-61
2023/01/24 10:44:13;;;;;;;21.08;18.25;;;;;;;1.82;100.00;161047.22;5030437;28;20437;-62
2023/01/24 10:47:00;;;;;;;20.65;18.25;;;;;;;1.76;100.00;161031.09;5028853;28;20041;-61
2023/01/24 10:49:29;;;;;;;21.73;19.17;;;;;;;1.68;100.00;161009.59;5030473;28;20029;-61
2023/01/24 10:52:13;;;;;;;21.55;18.73;;;;;;;1.77;100.00;161033.78;5028903;28;20087;-61
2023/01/24 10:54:58;;;;;;;19.77;17.60;;;;;;;1.75;100.00;161028.38;5030651;28;20128;-61
2023/01/24 10:57:41;;;;;;;19.85;17.75;;;;;;;1.84;100.00;161052.56;5029946;28;20049;-61
2023/01/24 11:00:18;;;;;;;20.65;17.85;;;;;;;1.98;100.00;161087.44;5032844;28;20044;-60
2023/01/24 11:02:49;;;;;;;22.45;19.45;;;;;;;2.01;100.00;161095.50;5033917;28;20017;-61
2023/01/24 11:05:17;;;;;;;19.50;17.50;;;;;;;1.99;100.00;161091.50;5032544;28;20049;-61
2023/01/24 11:07:51;;;;;;;25.90;19.85;;;;;;;1.94;100.00;161076.72;5033961;28;20119;-61
2023/01/24 11:10:35;;;;;;;21.55;18.75;;;;;;;1.79;100.00;161037.84;5031096;28;20097;-61
2023/01/24 11:13:16;;;;;;;20.13;17.08;;;;;;;1.80;100.00;161041.84;5033127;28;20021;-61
2023/01/24 11:15:48;;;;;;;23.52;19.75;;;;;;;1.82;100.00;161047.22;5032703;28;20064;-61
2023/01/24 11:18:21;;;;;;;20.55;17.83;;;;;;;1.73;100.00;161023.06;5033793;28;20109;-62
2023/01/24 11:20:55;;;;;;;19.08;16.50;;;;;;;1.71;100.00;161019.00;5030991;28;20045;-61
2023/01/24 11:23:21;;;;;;;18.40;16.35;;;;;;;1.76;100.00;161031.09;5033037;28;20029;-61
2023/01/24 11:26:02;;;;;;;19.98;17.27;;;;;;;1.84;100.00;161052.56;5032076;28;20140;-61
2023/01/24 11:28:30;;;;;;;20.42;16.67;;;;;;;1.82;100.00;161047.22;5032180;28;20029;-61
2023/01/24 11:31:00;;;;;;;21.00;18.50;;;;;;;1.85;100.00;161055.25;5032012;28;20048;-61
2023/01/24 11:33:47;;;;;;;22.67;16.95;;;;;;;1.93;100.00;161074.03;5032668;28;20025;-61
2023/01/24 11:36:47;;;;;;;19.33;16.17;;;;;;;1.92;100.00;161071.34;5030101;28;20437;-61
2023/01/24 11:39:40;;;;;;;20.25;17.13;;;;;;;1.90;100.00;161068.66;5033037;28;20384;-62
2023/01/24 11:42:16;;;;;;;19.48;17.58;;;;;;;1.98;100.00;161088.81;5030562;28;20114;-62
2023/01/24 11:44:47;;;;;;;19.58;17.67;;;;;;;2.07;100.00;161111.59;5032851;28;20021;-61
2023/01/24 11:47:19;;;;;;;19.08;16.23;;;;;;;2.20;100.00;161145.19;5031171;28;20071;-61
2023/01/24 11:49:54;;;;;;;16.60;14.93;;;;;;;2.25;100.00;161157.25;5032131;28;20033;-61
2023/01/24 11:52:41;;;;;;;19.20;17.30;;;;;;;2.28;100.00;161165.28;5030757;28;20037;-62